createdAt,value
2018-11-11T00:00:16.723Z,61.60
2018-11-11T00:00:47.821Z,58.15
2018-11-11T00:01:18.954Z,59.80
2018-11-11T00:01:50.098Z,58.17
2018-11-11T00:02:21.221Z,58.87
2018-11-11T00:02:52.331Z,58.30
2018-11-11T00:03:23.437Z,59.73
2018-11-11T00:03:54.584Z,57.75
2018-11-11T00:04:25.743Z,57.00
2018-11-11T00:04:56.862Z,59.85
2018-11-11T00:05:27.966Z,61.33
2018-11-11T00:05:59.117Z,58.20
2018-11-11T00:06:30.244Z,57.15
2018-11-11T00:07:01.372Z,58.17
2018-11-11T00:07:32.486Z,57.67
2018-11-11T00:08:03.619Z,59.38
2018-11-11T00:08:34.740Z,58.25
2018-11-11T00:09:05.882Z,61.28
2018-11-11T00:09:37.004Z,59.58
2018-11-11T00:10:08.166Z,59.48
2018-11-11T00:10:39.296Z,60.75
2018-11-11T00:11:10.665Z,60.23
2018-11-11T00:11:41.842Z,61.42
2018-11-11T00:12:12.951Z,60.95
2018-11-11T00:12:44.051Z,60.98
2018-11-11T00:13:15.176Z,60.80
2018-11-11T00:13:46.299Z,62.30
2018-11-11T00:14:17.426Z,59.10
2018-11-11T00:14:48.540Z,62.23
2018-11-11T00:15:19.697Z,60.52
2018-11-11T00:15:50.830Z,59.48
2018-11-11T00:16:21.935Z,59.93
2018-11-11T00:16:53.062Z,59.03
2018-11-11T00:17:24.192Z,57.25
2018-11-11T00:17:55.290Z,59.85
2018-11-11T00:18:26.419Z,56.68
2018-11-11T00:18:57.523Z,59.53
2018-11-11T00:19:28.629Z,56.70
2018-11-11T00:19:59.752Z,57.25
2018-11-11T00:20:30.911Z,58.68
2018-11-11T00:21:02.040Z,58.65
2018-11-11T00:21:33.260Z,61.10
2018-11-11T00:22:04.868Z,57.55
2018-11-11T00:22:36.043Z,56.13
2018-11-11T00:23:07.176Z,55.73
2018-11-11T00:23:38.298Z,56.77
2018-11-11T00:24:09.416Z,58.00
2018-11-11T00:24:40.543Z,57.05
2018-11-11T00:25:11.696Z,55.92
2018-11-11T00:25:42.852Z,55.17
2018-11-11T00:26:13.988Z,56.70
2018-11-11T00:26:45.103Z,55.83
2018-11-11T00:27:16.249Z,56.18
2018-11-11T00:27:47.396Z,55.15
2018-11-11T00:28:18.531Z,56.80
2018-11-11T00:28:49.658Z,57.00
2018-11-11T00:29:20.752Z,53.63
2018-11-11T00:29:51.890Z,53.92
2018-11-11T00:30:23.040Z,55.70
2018-11-11T00:30:54.161Z,57.15
2018-11-11T00:31:25.296Z,53.45
2018-11-11T00:31:56.440Z,55.35
2018-11-11T00:32:27.551Z,55.55
2018-11-11T00:32:58.716Z,53.70
2018-11-11T00:33:29.867Z,54.77
2018-11-11T00:34:00.985Z,56.70
2018-11-11T00:34:32.092Z,55.43
2018-11-11T00:35:03.241Z,55.60
2018-11-11T00:35:34.457Z,56.48
2018-11-11T00:36:05.631Z,57.35
2018-11-11T00:36:36.779Z,54.98
2018-11-11T00:37:07.899Z,56.55
2018-11-11T00:37:39.015Z,55.25
2018-11-11T00:38:10.128Z,56.33
2018-11-11T00:38:41.247Z,55.85
2018-11-11T00:39:12.347Z,54.13
2018-11-11T00:39:43.578Z,54.40
2018-11-11T00:40:14.639Z,54.25
2018-11-11T00:40:45.771Z,54.85
2018-11-11T00:41:16.909Z,55.15
2018-11-11T00:41:48.012Z,55.25
2018-11-11T00:42:19.126Z,54.75
2018-11-11T00:42:50.277Z,53.55
2018-11-11T00:43:21.383Z,55.98
2018-11-11T00:43:52.487Z,54.85
2018-11-11T00:44:23.667Z,57.70
2018-11-11T00:44:54.815Z,55.10
2018-11-11T00:45:25.975Z,54.33
2018-11-11T00:45:57.098Z,56.48
2018-11-11T00:46:28.299Z,55.03
2018-11-11T00:46:59.446Z,52.95
2018-11-11T00:47:30.588Z,55.12
2018-11-11T00:48:01.723Z,55.90
2018-11-11T00:48:32.821Z,53.92
2018-11-11T00:49:04.057Z,54.33
2018-11-11T00:49:35.194Z,55.20
2018-11-11T00:50:06.301Z,55.05
2018-11-11T00:50:37.439Z,55.45
2018-11-11T00:51:08.551Z,55.48
2018-11-11T00:51:39.682Z,55.00
2018-11-11T00:52:10.801Z,54.23
2018-11-11T00:52:41.899Z,56.23
2018-11-11T00:53:13.019Z,55.33
2018-11-11T00:53:44.123Z,55.85
2018-11-11T00:54:15.258Z,53.08
2018-11-11T00:54:46.367Z,52.85
2018-11-11T00:55:17.478Z,52.13
2018-11-11T00:55:48.610Z,54.35
2018-11-11T00:56:19.780Z,53.92
2018-11-11T00:56:50.897Z,54.93
2018-11-11T00:57:22.078Z,54.70
2018-11-11T00:57:53.197Z,55.95
2018-11-11T00:58:24.319Z,54.60
2018-11-11T00:58:55.455Z,53.83
2018-11-11T00:59:26.590Z,53.15
2018-11-11T00:59:57.756Z,53.20
2018-11-11T01:00:28.908Z,53.15
2018-11-11T01:01:00.058Z,54.55
2018-11-11T01:01:31.159Z,55.45
2018-11-11T01:02:02.293Z,53.45
2018-11-11T01:02:33.420Z,54.38
2018-11-11T01:03:04.608Z,54.20
2018-11-11T01:03:35.739Z,54.45
2018-11-11T01:04:06.869Z,53.20
2018-11-11T01:04:37.984Z,53.92
2018-11-11T01:05:09.115Z,53.87
2018-11-11T01:05:40.238Z,52.23
2018-11-11T01:06:11.367Z,52.20
2018-11-11T01:06:42.498Z,53.63
2018-11-11T01:07:13.610Z,54.00
2018-11-11T01:07:44.750Z,54.73
2018-11-11T01:08:15.916Z,53.48
2018-11-11T01:08:47.007Z,51.95
2018-11-11T01:09:18.139Z,53.13
2018-11-11T01:09:49.269Z,52.65
2018-11-11T01:10:20.439Z,52.27
2018-11-11T01:10:51.563Z,52.60
2018-11-11T01:11:22.695Z,52.30
2018-11-11T01:11:53.803Z,50.40
2018-11-11T01:12:25.011Z,51.73
2018-11-11T01:12:56.118Z,52.80
2018-11-11T01:13:27.247Z,52.33
2018-11-11T01:13:58.365Z,50.52
2018-11-11T01:14:29.481Z,51.45
2018-11-11T01:15:00.604Z,50.48
2018-11-11T01:15:31.756Z,51.05
2018-11-11T01:16:02.866Z,51.30
2018-11-11T01:16:33.967Z,52.45
2018-11-11T01:17:05.077Z,50.50
2018-11-11T01:17:36.228Z,50.63
2018-11-11T01:18:07.361Z,50.50
2018-11-11T01:18:38.486Z,50.08
2018-11-11T01:19:09.606Z,49.23
2018-11-11T01:19:40.745Z,50.83
2018-11-11T01:20:11.853Z,51.50
2018-11-11T01:20:42.970Z,51.92
2018-11-11T01:21:14.058Z,52.73
2018-11-11T01:21:45.167Z,52.48
2018-11-11T01:22:16.307Z,53.80
2018-11-11T01:22:47.446Z,52.80
2018-11-11T01:23:18.623Z,52.03
2018-11-11T01:23:49.802Z,50.83
2018-11-11T01:24:20.904Z,52.83
2018-11-11T01:24:52.048Z,53.00
2018-11-11T01:25:23.168Z,52.03
2018-11-11T01:25:54.339Z,53.58
2018-11-11T01:26:25.438Z,52.45
2018-11-11T01:26:56.568Z,52.40
2018-11-11T01:27:27.712Z,52.60
2018-11-11T01:27:58.854Z,53.50
2018-11-11T01:28:30.052Z,53.30
2018-11-11T01:29:01.168Z,54.05
2018-11-11T01:29:32.276Z,55.52
2018-11-11T01:30:03.433Z,54.77
2018-11-11T01:30:34.566Z,54.80
2018-11-11T01:31:05.704Z,54.83
2018-11-11T01:31:36.867Z,54.35
2018-11-11T01:32:08.017Z,56.13
2018-11-11T01:32:39.147Z,56.08
2018-11-11T01:33:10.303Z,54.60
2018-11-11T01:33:41.491Z,56.83
2018-11-11T01:34:12.645Z,55.48
2018-11-11T01:34:43.761Z,53.92
2018-11-11T01:35:14.867Z,54.27
2018-11-11T01:35:45.991Z,54.42
2018-11-11T01:36:17.118Z,54.33
2018-11-11T01:36:48.263Z,53.60
2018-11-11T01:37:19.378Z,52.45
2018-11-11T01:37:50.478Z,52.45
2018-11-11T01:38:21.599Z,53.28
2018-11-11T01:38:52.735Z,53.92
2018-11-11T01:39:23.966Z,53.73
2018-11-11T01:39:55.077Z,52.53
2018-11-11T01:40:26.245Z,51.85
2018-11-11T01:40:57.381Z,53.60
2018-11-11T01:41:28.504Z,52.20
2018-11-11T01:41:59.607Z,51.48
2018-11-11T01:42:30.729Z,52.33
2018-11-11T01:43:01.847Z,51.95
2018-11-11T01:43:32.964Z,51.70
2018-11-11T01:44:04.092Z,52.75
2018-11-11T01:44:35.267Z,50.88
2018-11-11T01:45:06.474Z,51.92
2018-11-11T01:45:37.601Z,51.33
2018-11-11T01:46:08.718Z,51.25
2018-11-11T01:46:39.821Z,51.05
2018-11-11T01:47:10.966Z,51.83
2018-11-11T01:47:42.095Z,51.33
2018-11-11T01:48:13.224Z,52.17
2018-11-11T01:48:44.384Z,51.23
2018-11-11T01:49:15.506Z,51.90
2018-11-11T01:49:46.667Z,51.53
2018-11-11T01:50:59.787Z,51.37
2018-11-11T01:51:30.943Z,51.48
2018-11-11T01:52:02.093Z,51.02
2018-11-11T01:52:33.271Z,49.98
2018-11-11T01:53:04.384Z,51.13
2018-11-11T01:53:35.505Z,51.92
2018-11-11T01:54:06.662Z,50.50
2018-11-11T01:54:37.836Z,50.88
2018-11-11T01:55:08.998Z,50.55
2018-11-11T01:56:16.330Z,51.60
2018-11-11T01:56:47.434Z,50.00
2018-11-11T01:57:19.707Z,49.93
2018-11-11T01:57:50.959Z,49.63
2018-11-11T01:58:22.084Z,50.23
2018-11-11T01:58:53.209Z,52.13
2018-11-11T01:59:24.336Z,51.45
2018-11-11T01:59:55.508Z,50.43
2018-11-11T02:00:26.668Z,50.70
2018-11-11T02:00:57.841Z,49.83
2018-11-11T02:01:28.995Z,50.08
2018-11-11T02:02:00.175Z,49.88
2018-11-11T02:02:31.278Z,50.12
2018-11-11T02:03:02.429Z,51.18
2018-11-11T02:03:33.547Z,50.60
2018-11-11T02:04:04.670Z,50.30
2018-11-11T02:04:35.842Z,50.80
2018-11-11T02:05:06.966Z,51.53
2018-11-11T02:05:38.122Z,51.02
2018-11-11T02:06:09.247Z,51.92
2018-11-11T02:06:40.409Z,50.63
2018-11-11T02:07:11.602Z,51.40
2018-11-11T02:07:42.832Z,52.03
2018-11-11T02:08:13.967Z,50.15
2018-11-11T02:08:45.146Z,50.70
2018-11-11T02:09:16.254Z,50.10
2018-11-11T02:09:47.490Z,51.73
2018-11-11T02:10:18.543Z,50.75
2018-11-11T02:10:49.711Z,51.75
2018-11-11T02:11:20.834Z,50.12
2018-11-11T02:11:51.971Z,47.83
2018-11-11T02:12:23.101Z,48.52
2018-11-11T02:12:54.203Z,47.73
2018-11-11T02:13:25.389Z,48.35
2018-11-11T02:13:56.549Z,50.00
2018-11-11T02:14:27.673Z,48.40
2018-11-11T02:14:58.792Z,49.93
2018-11-11T02:15:29.932Z,49.93
2018-11-11T02:16:01.052Z,47.48
2018-11-11T02:16:32.207Z,47.85
2018-11-11T02:17:03.312Z,47.90
2018-11-11T02:17:34.443Z,47.90
2018-11-11T02:18:05.587Z,48.13
2018-11-11T02:18:36.742Z,47.55
2018-11-11T02:19:07.856Z,47.35
2018-11-11T02:19:40.565Z,48.25
2018-11-11T02:20:13.526Z,48.48
2018-11-11T02:20:44.690Z,49.00
2018-11-11T02:21:15.893Z,49.18
2018-11-11T02:21:47.069Z,48.40
2018-11-11T02:22:18.164Z,47.67
2018-11-11T02:22:49.292Z,49.03
2018-11-11T02:23:20.436Z,48.50
2018-11-11T02:23:51.569Z,48.15
2018-11-11T02:24:22.727Z,50.80
2018-11-11T02:24:53.848Z,48.28
2018-11-11T02:25:25.032Z,49.18
2018-11-11T02:25:56.123Z,47.98
2018-11-11T02:26:27.230Z,48.45
2018-11-11T02:26:58.340Z,48.60
2018-11-11T02:27:29.496Z,48.45
2018-11-11T02:28:00.660Z,48.90
2018-11-11T02:28:31.790Z,47.25
2018-11-11T02:29:02.910Z,49.53
2018-11-11T02:29:34.008Z,48.65
2018-11-11T02:30:05.114Z,49.90
2018-11-11T02:30:36.278Z,49.45
2018-11-11T02:31:07.433Z,48.68
2018-11-11T02:31:38.652Z,50.08
2018-11-11T02:32:09.839Z,48.78
2018-11-11T02:32:40.975Z,49.75
2018-11-11T02:33:12.110Z,48.17
2018-11-11T02:33:43.229Z,49.23
2018-11-11T02:34:14.361Z,48.68
2018-11-11T02:34:45.493Z,48.80
2018-11-11T02:35:16.610Z,50.45
2018-11-11T02:35:47.735Z,47.95
2018-11-11T02:36:18.890Z,48.70
2018-11-11T02:36:50.032Z,47.80
2018-11-11T02:37:21.180Z,46.80
2018-11-11T02:37:52.323Z,46.60
2018-11-11T02:38:23.439Z,47.60
2018-11-11T02:38:54.570Z,44.40
2018-11-11T02:39:25.778Z,44.33
2018-11-11T02:39:56.918Z,45.30
2018-11-11T02:40:28.026Z,44.50
2018-11-11T02:40:59.140Z,44.42
2018-11-11T02:41:30.248Z,45.63
2018-11-11T02:42:01.414Z,47.35
2018-11-11T02:42:32.547Z,46.88
2018-11-11T02:43:03.701Z,46.48
2018-11-11T02:43:34.873Z,46.55
2018-11-11T02:44:05.974Z,48.52
2018-11-11T02:44:37.131Z,47.78
2018-11-11T02:45:08.251Z,48.45
2018-11-11T02:45:39.374Z,46.92
2018-11-11T02:46:10.507Z,49.38
2018-11-11T02:46:41.667Z,49.25
2018-11-11T02:47:12.844Z,48.70
2018-11-11T02:47:43.981Z,48.33
2018-11-11T02:48:15.131Z,49.48
2018-11-11T02:48:46.281Z,49.13
2018-11-11T02:49:17.422Z,48.20
2018-11-11T02:49:48.555Z,49.05
2018-11-11T02:50:19.701Z,49.23
2018-11-11T02:50:50.810Z,49.23
2018-11-11T02:51:21.928Z,48.30
2018-11-11T02:51:53.050Z,50.78
2018-11-11T02:52:24.187Z,50.52
2018-11-11T02:52:55.366Z,50.03
2018-11-11T02:53:26.486Z,51.02
2018-11-11T02:53:57.621Z,50.80
2018-11-11T02:54:28.749Z,51.58
2018-11-11T02:55:00.007Z,49.53
2018-11-11T02:55:31.144Z,49.88
2018-11-11T02:56:02.305Z,51.10
2018-11-11T02:56:33.411Z,50.03
2018-11-11T02:57:04.536Z,50.90
2018-11-11T02:57:35.677Z,50.28
2018-11-11T02:58:06.858Z,51.58
2018-11-11T02:58:37.976Z,50.98
2018-11-11T02:59:09.090Z,51.18
2018-11-11T02:59:40.227Z,51.18
2018-11-11T03:00:11.386Z,51.40
2018-11-11T03:00:42.504Z,50.05
2018-11-11T03:01:13.605Z,50.70
2018-11-11T03:01:44.733Z,50.65
2018-11-11T03:02:15.854Z,51.48
2018-11-11T03:02:46.976Z,51.08
2018-11-11T03:03:18.137Z,49.13
2018-11-11T03:03:49.333Z,51.23
2018-11-11T03:04:20.483Z,51.95
2018-11-11T03:04:51.618Z,51.00
2018-11-11T03:05:22.764Z,50.92
2018-11-11T03:05:53.889Z,50.58
2018-11-11T03:06:25.013Z,49.53
2018-11-11T03:06:56.157Z,51.65
2018-11-11T03:07:27.291Z,50.23
2018-11-11T03:07:58.448Z,50.60
2018-11-11T03:08:29.616Z,51.60
2018-11-11T03:09:00.742Z,50.10
2018-11-11T03:09:31.893Z,50.45
2018-11-11T03:10:03.004Z,50.20
2018-11-11T03:10:34.136Z,49.30
2018-11-11T03:11:05.239Z,50.40
2018-11-11T03:11:36.360Z,50.23
2018-11-11T03:12:07.491Z,50.40
2018-11-11T03:12:38.622Z,51.37
2018-11-11T03:13:09.750Z,49.33
2018-11-11T03:13:40.910Z,49.42
2018-11-11T03:14:12.007Z,51.70
2018-11-11T03:14:43.119Z,50.75
2018-11-11T03:15:14.251Z,50.03
2018-11-11T03:15:45.407Z,52.03
2018-11-11T03:16:16.547Z,50.83
2018-11-11T03:16:47.679Z,52.10
2018-11-11T03:17:18.817Z,51.88
2018-11-11T03:17:49.917Z,51.95
2018-11-11T03:18:21.055Z,53.90
2018-11-11T03:18:52.230Z,53.80
2018-11-11T03:19:23.397Z,52.48
2018-11-11T03:19:54.497Z,51.55
2018-11-11T03:20:25.646Z,52.05
2018-11-11T03:20:56.824Z,53.45
2018-11-11T03:21:27.903Z,52.75
2018-11-11T03:21:59.088Z,52.08
2018-11-11T03:22:30.216Z,52.13
2018-11-11T03:23:01.343Z,51.80
2018-11-11T03:23:32.451Z,54.38
2018-11-11T03:24:03.594Z,53.50
2018-11-11T03:24:34.761Z,53.35
2018-11-11T03:25:05.865Z,52.45
2018-11-11T03:25:37.003Z,52.38
2018-11-11T03:26:08.118Z,53.55
2018-11-11T03:26:39.242Z,52.08
2018-11-11T03:27:10.358Z,55.00
2018-11-11T03:27:41.521Z,53.65
2018-11-11T03:28:12.674Z,53.17
2018-11-11T03:28:43.762Z,53.60
2018-11-11T03:29:14.877Z,52.95
2018-11-11T03:29:45.971Z,52.65
2018-11-11T03:30:17.113Z,54.88
2018-11-11T03:30:48.231Z,55.03
2018-11-11T03:31:19.379Z,54.27
2018-11-11T03:31:50.552Z,54.00
2018-11-11T03:32:21.731Z,53.45
2018-11-11T03:32:52.867Z,52.67
2018-11-11T03:33:23.994Z,53.25
2018-11-11T03:33:55.139Z,52.93
2018-11-11T03:34:26.278Z,51.28
2018-11-11T03:34:57.442Z,52.27
2018-11-11T03:35:28.592Z,50.88
2018-11-11T03:35:59.695Z,51.33
2018-11-11T03:36:30.812Z,52.33
2018-11-11T03:37:01.926Z,54.23
2018-11-11T03:37:33.081Z,52.30
2018-11-11T03:38:05.129Z,52.98
2018-11-11T03:38:36.325Z,50.73
2018-11-11T03:39:07.427Z,51.75
2018-11-11T03:39:38.563Z,52.10
2018-11-11T03:40:09.708Z,51.73
2018-11-11T03:40:40.833Z,51.77
2018-11-11T03:41:11.972Z,51.77
2018-11-11T03:41:43.097Z,52.43
2018-11-11T03:42:14.206Z,52.75
2018-11-11T03:42:45.344Z,51.15
2018-11-11T03:43:16.485Z,51.60
2018-11-11T03:43:47.656Z,51.83
2018-11-11T03:44:18.793Z,51.40
2018-11-11T03:44:49.928Z,50.03
2018-11-11T03:45:21.033Z,52.35
2018-11-11T03:45:52.164Z,55.10
2018-11-11T03:46:23.277Z,53.75
2018-11-11T03:46:54.389Z,56.08
2018-11-11T03:47:25.534Z,57.38
2018-11-11T03:47:56.704Z,57.00
2018-11-11T03:48:27.841Z,54.98
2018-11-11T03:48:58.958Z,53.05
2018-11-11T03:49:30.087Z,52.08
2018-11-11T03:50:01.207Z,51.95
2018-11-11T03:50:32.383Z,52.98
2018-11-11T03:51:03.506Z,51.90
2018-11-11T03:51:34.614Z,51.98
2018-11-11T03:52:05.742Z,47.15
2018-11-11T03:52:36.878Z,49.23
2018-11-11T03:53:08.006Z,51.63
2018-11-11T03:53:39.173Z,51.18
2018-11-11T03:54:11.342Z,51.08
2018-11-11T03:54:42.453Z,50.55
2018-11-11T03:55:16.684Z,49.53
2018-11-11T03:55:47.791Z,46.73
2018-11-11T03:56:18.893Z,46.18
2018-11-11T03:56:49.993Z,46.58
2018-11-11T03:57:21.112Z,45.60
2018-11-11T03:57:52.228Z,46.85
2018-11-11T03:58:23.384Z,45.73
2018-11-11T03:58:54.535Z,45.17
2018-11-11T03:59:25.672Z,47.00
2018-11-11T03:59:56.783Z,44.10
2018-11-11T04:00:27.926Z,45.05
2018-11-11T04:00:59.073Z,45.45
2018-11-11T04:01:30.179Z,46.35
2018-11-11T04:02:01.343Z,45.45
2018-11-11T04:02:32.464Z,46.45
2018-11-11T04:03:03.585Z,46.10
2018-11-11T04:03:34.718Z,47.80
2018-11-11T04:04:05.863Z,47.65
2018-11-11T04:04:36.967Z,48.92
2018-11-11T04:05:08.105Z,47.83
2018-11-11T04:05:39.254Z,48.75
2018-11-11T04:06:10.406Z,47.55
2018-11-11T04:06:41.546Z,47.05
2018-11-11T04:07:12.651Z,46.50
2018-11-11T04:07:43.766Z,47.80
2018-11-11T04:08:15.656Z,47.55
2018-11-11T04:08:46.827Z,49.70
2018-11-11T04:09:17.954Z,47.93
2018-11-11T04:09:51.193Z,48.15
2018-11-11T04:10:22.333Z,47.43
2018-11-11T04:10:53.506Z,46.90
2018-11-11T04:11:24.602Z,46.48
2018-11-11T04:11:55.753Z,47.73
2018-11-11T04:12:26.876Z,48.38
2018-11-11T04:12:57.988Z,46.83
2018-11-11T04:13:29.127Z,47.70
2018-11-11T04:14:00.240Z,47.05
2018-11-11T04:14:31.413Z,47.33
2018-11-11T04:15:02.570Z,47.93
2018-11-11T04:15:33.713Z,47.23
2018-11-11T04:16:04.837Z,48.50
2018-11-11T04:16:35.949Z,49.08
2018-11-11T04:17:07.041Z,48.83
2018-11-11T04:17:38.182Z,49.05
2018-11-11T04:18:09.322Z,48.70
2018-11-11T04:18:40.435Z,49.13
2018-11-11T04:19:11.572Z,46.88
2018-11-11T04:19:42.723Z,46.83
2018-11-11T04:20:13.850Z,46.28
2018-11-11T04:20:44.995Z,48.20
2018-11-11T04:21:16.099Z,46.23
2018-11-11T04:21:47.231Z,47.35
2018-11-11T04:22:18.356Z,44.83
2018-11-11T04:22:49.488Z,45.05
2018-11-11T04:23:20.595Z,45.48
2018-11-11T04:23:51.730Z,45.38
2018-11-11T04:24:22.836Z,44.40
2018-11-11T04:24:54.029Z,43.15
2018-11-11T04:25:25.195Z,43.58
2018-11-11T04:25:56.335Z,43.23
2018-11-11T04:26:27.475Z,42.70
2018-11-11T04:26:58.609Z,43.33
2018-11-11T04:27:29.740Z,44.63
2018-11-11T04:28:00.899Z,45.17
2018-11-11T04:28:32.035Z,45.50
2018-11-11T04:29:03.157Z,46.30
2018-11-11T04:29:34.284Z,45.03
2018-11-11T04:30:05.458Z,46.20
2018-11-11T04:30:36.596Z,45.12
2018-11-11T04:31:07.709Z,44.90
2018-11-11T04:31:38.814Z,47.08
2018-11-11T04:32:09.923Z,46.02
2018-11-11T04:32:41.041Z,45.28
2018-11-11T04:33:12.150Z,44.33
2018-11-11T04:33:43.252Z,46.18
2018-11-11T04:34:14.426Z,44.83
2018-11-11T04:34:45.547Z,43.83
2018-11-11T04:35:16.707Z,42.95
2018-11-11T04:35:47.824Z,41.80
2018-11-11T04:36:18.973Z,43.28
2018-11-11T04:36:50.102Z,44.15
2018-11-11T04:37:21.224Z,42.17
2018-11-11T04:37:52.340Z,43.35
2018-11-11T04:38:23.467Z,41.92
2018-11-11T04:38:54.612Z,40.17
2018-11-11T04:39:27.531Z,41.50
2018-11-11T04:39:58.650Z,42.67
2018-11-11T04:40:29.787Z,41.08
2018-11-11T04:41:01.023Z,40.73
2018-11-11T04:41:32.150Z,39.05
2018-11-11T04:42:03.271Z,41.20
2018-11-11T04:42:34.384Z,41.02
2018-11-11T04:43:05.515Z,42.23
2018-11-11T04:43:36.683Z,40.90
2018-11-11T04:44:07.830Z,40.43
2018-11-11T04:44:38.982Z,41.75
2018-11-11T04:45:10.114Z,43.35
2018-11-11T04:45:41.265Z,41.63
2018-11-11T04:46:12.500Z,43.23
2018-11-11T04:46:43.623Z,43.95
2018-11-11T04:47:14.780Z,43.65
2018-11-11T04:47:45.884Z,44.65
2018-11-11T04:48:17.020Z,43.87
2018-11-11T04:48:48.125Z,44.15
2018-11-11T04:49:19.256Z,45.90
2018-11-11T04:49:50.350Z,43.10
2018-11-11T04:50:21.490Z,45.50
2018-11-11T04:50:52.610Z,44.63
2018-11-11T04:51:23.764Z,44.03
2018-11-11T04:51:54.934Z,44.67
2018-11-11T04:52:26.191Z,45.55
2018-11-11T04:52:57.350Z,45.05
2018-11-11T04:53:28.526Z,46.18
2018-11-11T04:53:59.631Z,46.65
2018-11-11T04:54:30.776Z,46.45
2018-11-11T04:55:01.924Z,46.48
2018-11-11T04:55:33.045Z,47.03
2018-11-11T04:56:04.159Z,46.33
2018-11-11T04:56:35.272Z,45.38
2018-11-11T04:57:06.386Z,45.63
2018-11-11T04:57:37.565Z,44.45
2018-11-11T04:58:08.718Z,43.63
2018-11-11T04:58:39.870Z,46.02
2018-11-11T04:59:10.984Z,44.15
2018-11-11T04:59:42.094Z,46.30
2018-11-11T05:00:13.198Z,46.13
2018-11-11T05:00:44.305Z,45.17
2018-11-11T05:01:15.491Z,46.25
2018-11-11T05:01:46.599Z,47.75
2018-11-11T05:02:17.741Z,46.33
2018-11-11T05:02:48.869Z,46.23
2018-11-11T05:03:20.015Z,48.13
2018-11-11T05:03:51.172Z,48.08
2018-11-11T05:04:22.344Z,47.85
2018-11-11T05:04:53.485Z,46.25
2018-11-11T05:05:24.625Z,48.25
2018-11-11T05:05:55.738Z,48.65
2018-11-11T05:06:26.884Z,48.40
2018-11-11T05:06:58.046Z,49.35
2018-11-11T05:07:29.186Z,51.18
2018-11-11T05:08:00.299Z,49.67
2018-11-11T05:08:36.212Z,49.65
2018-11-11T05:09:07.482Z,48.13
2018-11-11T05:09:38.581Z,47.43
2018-11-11T05:10:09.697Z,47.62
2018-11-11T05:10:40.833Z,47.05
2018-11-11T05:11:11.938Z,47.30
2018-11-11T05:11:43.066Z,46.98
2018-11-11T05:12:14.185Z,47.80
2018-11-11T05:12:45.349Z,47.50
2018-11-11T05:13:16.501Z,46.95
2018-11-11T05:13:47.640Z,46.00
2018-11-11T05:14:18.784Z,45.75
2018-11-11T05:14:49.909Z,47.65
2018-11-11T05:15:21.060Z,46.75
2018-11-11T05:15:52.192Z,47.00
2018-11-11T05:16:23.338Z,46.23
2018-11-11T05:16:54.461Z,47.60
2018-11-11T05:17:25.604Z,47.17
2018-11-11T05:17:56.719Z,46.68
2018-11-11T05:18:27.852Z,48.08
2018-11-11T05:18:58.987Z,48.08
2018-11-11T05:19:30.112Z,48.52
2018-11-11T05:20:01.218Z,49.58
2018-11-11T05:20:32.375Z,46.65
2018-11-11T05:21:03.507Z,46.95
2018-11-11T05:21:34.650Z,48.42
2018-11-11T05:22:05.834Z,46.68
2018-11-11T05:22:36.957Z,47.83
2018-11-11T05:23:08.097Z,49.18
2018-11-11T05:23:39.990Z,49.00
2018-11-11T05:24:11.119Z,47.35
2018-11-11T05:24:42.255Z,48.17
2018-11-11T05:25:13.391Z,47.03
2018-11-11T05:25:44.517Z,48.73
2018-11-11T05:26:15.661Z,48.25
2018-11-11T05:26:46.805Z,48.20
2018-11-11T05:27:17.967Z,48.52
2018-11-11T05:27:49.102Z,48.55
2018-11-11T05:28:20.277Z,48.85
2018-11-11T05:28:51.402Z,47.62
2018-11-11T05:29:22.540Z,47.60
2018-11-11T05:29:53.663Z,48.48
2018-11-11T05:30:24.859Z,49.23
2018-11-11T05:30:56.537Z,46.53
2018-11-11T05:31:27.679Z,46.35
2018-11-11T05:31:58.815Z,48.42
2018-11-11T05:32:29.963Z,47.48
2018-11-11T05:33:01.144Z,45.98
2018-11-11T05:33:32.313Z,46.75
2018-11-11T05:34:03.417Z,46.80
2018-11-11T05:34:34.544Z,47.43
2018-11-11T05:35:05.735Z,46.02
2018-11-11T05:35:36.851Z,45.65
2018-11-11T05:36:07.981Z,46.68
2018-11-11T05:36:39.089Z,45.88
2018-11-11T05:37:10.195Z,43.80
2018-11-11T05:37:41.646Z,45.30
2018-11-11T05:38:12.771Z,44.30
2018-11-11T05:38:43.933Z,45.23
2018-11-11T05:39:15.036Z,44.50
2018-11-11T05:39:46.160Z,42.85
2018-11-11T05:40:17.322Z,44.30
2018-11-11T05:40:48.441Z,43.40
2018-11-11T05:41:19.570Z,43.40
2018-11-11T05:41:50.679Z,42.20
2018-11-11T05:42:21.822Z,43.52
2018-11-11T05:42:53.042Z,43.02
2018-11-11T05:43:24.139Z,42.08
2018-11-11T05:43:55.247Z,42.73
2018-11-11T05:44:26.395Z,43.15
2018-11-11T05:44:57.519Z,42.40
2018-11-11T05:45:28.656Z,41.77
2018-11-11T05:45:59.786Z,42.03
2018-11-11T05:46:30.886Z,42.75
2018-11-11T05:47:02.003Z,42.10
2018-11-11T05:47:33.103Z,44.40
2018-11-11T05:48:04.265Z,42.78
2018-11-11T05:48:35.358Z,44.50
2018-11-11T05:49:06.492Z,42.93
2018-11-11T05:49:37.687Z,43.28
2018-11-11T05:50:08.796Z,40.98
2018-11-11T05:50:39.949Z,41.80
2018-11-11T05:51:11.069Z,43.35
2018-11-11T05:51:42.199Z,42.90
2018-11-11T05:52:13.314Z,42.15
2018-11-11T05:52:44.487Z,41.55
2018-11-11T05:53:15.619Z,43.20
2018-11-11T05:53:46.732Z,42.05
2018-11-11T05:54:17.836Z,42.27
2018-11-11T05:54:48.946Z,42.10
2018-11-11T05:55:20.108Z,41.33
2018-11-11T05:55:51.239Z,42.15
2018-11-11T05:56:22.399Z,42.33
2018-11-11T05:56:53.531Z,41.75
2018-11-11T05:57:24.742Z,42.38
2018-11-11T05:57:55.879Z,41.18
2018-11-11T05:58:27.060Z,39.83
2018-11-11T05:59:00.907Z,41.70
2018-11-11T05:59:32.023Z,41.15
2018-11-11T06:00:03.148Z,41.05
2018-11-11T06:00:34.278Z,41.18
2018-11-11T06:01:05.417Z,40.20
2018-11-11T06:01:36.551Z,39.33
2018-11-11T06:02:07.677Z,36.95
2018-11-11T06:02:38.840Z,38.58
2018-11-11T06:03:09.965Z,39.63
2018-11-11T06:03:41.125Z,38.92
2018-11-11T06:04:12.261Z,39.73
2018-11-11T06:04:43.381Z,38.70
2018-11-11T06:05:14.485Z,38.92
2018-11-11T06:05:45.591Z,39.23
2018-11-11T06:06:16.710Z,38.10
2018-11-11T06:06:47.834Z,38.60
2018-11-11T06:07:18.957Z,39.27
2018-11-11T06:07:50.083Z,39.53
2018-11-11T06:08:21.219Z,39.67
2018-11-11T06:08:52.325Z,37.90
2018-11-11T06:09:23.425Z,37.98
2018-11-11T06:09:54.596Z,40.30
2018-11-11T06:10:25.697Z,39.40
2018-11-11T06:10:56.827Z,37.85
2018-11-11T06:11:27.976Z,38.88
2018-11-11T06:11:59.139Z,37.98
2018-11-11T06:12:30.249Z,36.90
2018-11-11T06:13:01.369Z,35.95
2018-11-11T06:13:32.477Z,37.08
2018-11-11T06:14:03.584Z,37.53
2018-11-11T06:14:34.686Z,38.95
2018-11-11T06:15:05.841Z,36.77
2018-11-11T06:15:37.002Z,35.98
2018-11-11T06:16:08.161Z,37.10
2018-11-11T06:16:39.272Z,37.03
2018-11-11T06:17:10.383Z,35.43
2018-11-11T06:17:41.488Z,36.20
2018-11-11T06:18:12.634Z,38.73
2018-11-11T06:18:43.802Z,37.13
2018-11-11T06:19:14.926Z,37.08
2018-11-11T06:19:46.062Z,39.38
2018-11-11T06:20:17.214Z,36.60
2018-11-11T06:20:48.351Z,38.80
2018-11-11T06:21:19.480Z,34.40
2018-11-11T06:21:50.588Z,35.60
2018-11-11T06:22:21.717Z,37.30
2018-11-11T06:22:52.835Z,36.68
2018-11-11T06:23:23.930Z,37.03
2018-11-11T06:23:55.084Z,37.80
2018-11-11T06:24:26.228Z,36.60
2018-11-11T06:24:57.383Z,34.75
2018-11-11T06:25:28.485Z,36.75
2018-11-11T06:25:59.582Z,33.40
2018-11-11T06:26:30.686Z,35.10
2018-11-11T06:27:01.873Z,34.95
2018-11-11T06:27:33.037Z,35.78
2018-11-11T06:28:04.119Z,34.92
2018-11-11T06:28:35.250Z,34.03
2018-11-11T06:29:06.362Z,33.58
2018-11-11T06:29:37.510Z,35.65
2018-11-11T06:30:08.647Z,35.20
2018-11-11T06:30:39.756Z,36.23
2018-11-11T06:31:10.886Z,33.45
2018-11-11T06:31:42.004Z,34.70
2018-11-11T06:32:13.224Z,34.53
2018-11-11T06:32:44.340Z,35.35
2018-11-11T06:33:15.470Z,33.90
2018-11-11T06:33:46.583Z,34.92
2018-11-11T06:34:17.794Z,35.55
2018-11-11T06:34:48.832Z,35.15
2018-11-11T06:35:19.975Z,34.78
2018-11-11T06:35:51.118Z,34.15
2018-11-11T06:36:22.215Z,35.83
2018-11-11T06:36:53.335Z,33.75
2018-11-11T06:37:24.528Z,35.10
2018-11-11T06:37:55.664Z,35.20
2018-11-11T06:38:26.772Z,34.15
2018-11-11T06:38:57.898Z,34.15
2018-11-11T06:39:29.010Z,34.60
2018-11-11T06:40:00.129Z,34.33
2018-11-11T06:40:31.244Z,34.78
2018-11-11T06:41:02.380Z,35.55
2018-11-11T06:41:33.515Z,33.08
2018-11-11T06:42:04.624Z,33.58
2018-11-11T06:42:35.814Z,32.88